Página principal
METAR-TAF:

METAR-TAF

Aeroportos :

Cambridge, Inglaterra

latitude: 52-12N, longitude: 000-11E, altura: 15 m

Observação actual do tempo

O boletim foi feito há 5 horas e 31 minutos, às 17:50 UTC
Vento 7 kt de su-sudoeste
Temperatura 1°C
Humidade 86%
Pressão 1008 hPa
Visibilidade 10 km ou mais
sem nuvens abaixo de 1500 metros e sem cumulonimbus

METAR: EGSC 121750Z 20007KT CAVOK 01/M01 Q1008

Hora: 23:21 (23:21 UTC)

Previsão

O boletim foi feito há 6 horas e 3 minutos, às 17:18 UTC
Previsão válida de 12 às 18 UTC a 12 às 21 UTC
Vento 8 kt de sudoeste
Visibilidade 10 km ou mais
Poucas nuvensa uma altura de 1000 ft
Probabilidade 30%
de 12 às 18 UTC a 12 às 20 UTC
Visibilidade: 6000 m
Probabilidade 30%
de 12 às 20 UTC a 12 às 21 UTC
Visibilidade: 6000 m
Nuvens fragmentadasa uma altura de 1000 ft
aguaceiros de chuva

TAF: EGSC 121718Z 1218/1221 23008KT 9999 FEW010 PROB30 1218/1220 6000 PROB30 1220/1221 6000 SHRA BKN010

Observações e previsões do tempo de mais de 4000 aeroportos (mensagens METAR e TAF).

As estações disponíveis são os pontos amarelos e vermelhos sobre o mapa.

Mova o rato sobre o mapa para ver o nome da estação.

Depois clique no ponto para visualizar as observações e previsões meteorológicas.

Para alterar o mapa : clique nos botões verdes com uma cruz preta para aumentar o zoom; no botão verde com uma pitada de zoom; ou nas setas verdes para mapas adjacentes.


METAR-TAF: